createdAt,value
2022-11-28T00:04:54.923Z,4.93
2022-11-28T00:09:56.484Z,4.90
2022-11-28T00:14:57.921Z,4.60
2022-11-28T00:19:59.413Z,4.55
2022-11-28T00:25:00.847Z,3.47
2022-11-28T00:30:02.463Z,7.60
2022-11-28T00:35:04.201Z,3.03
2022-11-28T00:40:05.940Z,3.40
2022-11-28T00:45:07.731Z,5.78
2022-11-28T00:50:09.433Z,3.65
2022-11-28T00:55:10.874Z,2.15
2022-11-28T01:00:12.592Z,5.28
2022-11-28T01:05:14.137Z,4.63
2022-11-28T01:10:15.685Z,3.60
2022-11-28T01:15:17.127Z,2.17
2022-11-28T01:20:18.669Z,3.13
2022-11-28T01:25:20.114Z,2.97
2022-11-28T01:30:21.537Z,1.60
2022-11-28T01:35:22.956Z,2.80
2022-11-28T01:40:24.386Z,2.03
2022-11-28T01:45:28.665Z,2.88
2022-11-28T01:50:31.512Z,4.70
2022-11-28T01:55:35.473Z,2.75
2022-11-28T02:00:37.342Z,2.63
2022-11-28T02:05:39.209Z,3.30
2022-11-28T02:10:48.336Z,2.58
2022-11-28T02:15:59.222Z,3.25
2022-11-28T02:21:16.785Z,2.72
2022-11-28T02:26:28.604Z,2.80
2022-11-28T02:31:48.732Z,2.17
2022-11-28T02:36:51.249Z,2.63
2022-11-28T02:42:04.709Z,4.22
2022-11-28T02:47:09.217Z,4.85
2022-11-28T02:52:15.323Z,4.82
2022-11-28T02:57:16.800Z,3.17
2022-11-28T03:02:22.933Z,2.88
2022-11-28T03:07:39.844Z,3.33
2022-11-28T03:12:51.721Z,4.05
2022-11-28T03:18:02.105Z,4.93
2022-11-28T03:23:15.428Z,6.03
2022-11-28T03:28:19.771Z,3.60
2022-11-28T03:33:22.308Z,5.15
2022-11-28T03:38:44.029Z,4.03
2022-11-28T03:43:47.777Z,3.78
2022-11-28T03:48:52.303Z,4.13
2022-11-28T03:54:00.982Z,3.85
2022-11-28T03:59:07.102Z,5.18
2022-11-28T04:04:16.573Z,3.53
2022-11-28T04:09:19.981Z,4.90
2022-11-28T04:14:29.495Z,3.35
2022-11-28T04:20:06.607Z,4.30
2022-11-28T04:25:10.816Z,4.47
2022-11-28T04:30:12.744Z,4.35
2022-11-28T04:35:22.977Z,5.28
2022-11-28T04:45:34.010Z,3.00
2022-11-28T04:50:43.850Z,4.10
2022-11-28T04:55:47.647Z,3.13
2022-11-28T05:00:51.038Z,3.40
2022-11-28T05:05:52.512Z,2.60
2022-11-28T05:10:53.985Z,3.17
2022-11-28T05:15:55.463Z,2.35
2022-11-28T05:20:58.693Z,4.88
2022-11-28T05:26:04.399Z,3.42
2022-11-28T05:31:06.003Z,6.00
2022-11-28T05:36:12.922Z,3.25
2022-11-28T05:41:18.828Z,4.93
2022-11-28T05:46:20.715Z,3.08
2022-11-28T05:51:22.242Z,3.03
2022-11-28T05:56:23.718Z,4.07
2022-11-28T06:01:26.622Z,3.92
2022-11-28T06:06:29.949Z,3.10
2022-11-28T06:11:31.998Z,3.33
2022-11-28T06:16:33.548Z,4.68
2022-11-28T06:21:35.053Z,4.72
2022-11-28T06:26:36.517Z,4.80
2022-11-28T06:31:38.038Z,5.13
2022-11-28T06:36:40.321Z,5.20
2022-11-28T06:41:42.049Z,4.30
2022-11-28T06:46:43.663Z,5.22
2022-11-28T06:51:45.967Z,8.02
2022-11-28T06:56:47.393Z,7.20
2022-11-28T07:01:49.506Z,6.45
2022-11-28T07:06:51.162Z,5.20
2022-11-28T07:11:52.629Z,4.20
2022-11-28T07:16:54.233Z,6.72
2022-11-28T07:21:55.801Z,6.32
2022-11-28T07:26:57.369Z,11.88
2022-11-28T07:31:58.852Z,8.98
2022-11-28T07:37:00.765Z,5.35
2022-11-28T07:42:02.533Z,6.45
2022-11-28T07:47:04.063Z,6.63
2022-11-28T07:52:05.605Z,7.30
2022-11-28T07:57:14.137Z,5.25
2022-11-28T08:02:15.948Z,3.72
2022-11-28T08:07:17.593Z,5.72
2022-11-28T08:12:19.150Z,5.05
2022-11-28T08:17:22.133Z,4.70
2022-11-28T08:22:23.583Z,4.65
2022-11-28T08:27:25.038Z,5.35
2022-11-28T08:32:26.580Z,6.88
2022-11-28T08:37:28.344Z,6.78
2022-11-28T08:42:29.805Z,6.80
2022-11-28T08:47:31.268Z,9.25
2022-11-28T08:52:32.992Z,5.72
2022-11-28T08:57:34.416Z,5.13
2022-11-28T09:02:35.845Z,5.18
2022-11-28T09:07:37.350Z,5.07
2022-11-28T09:12:38.876Z,5.22
2022-11-28T09:17:40.982Z,4.70
2022-11-28T09:22:42.671Z,5.22
2022-11-28T09:27:44.118Z,6.93
2022-11-28T09:32:47.834Z,5.35
2022-11-28T09:37:49.256Z,6.40
2022-11-28T09:42:50.678Z,5.13
2022-11-28T09:47:54.699Z,5.35
2022-11-28T09:53:02.061Z,3.70
2022-11-28T09:58:29.773Z,5.32
2022-11-28T10:03:37.290Z,7.78
2022-11-28T10:08:48.648Z,5.95
2022-11-28T10:19:31.535Z,6.10
2022-11-28T10:24:41.784Z,3.60
2022-11-28T10:30:01.789Z,5.22
2022-11-28T10:35:28.069Z,4.13
2022-11-28T10:40:36.043Z,5.47
2022-11-28T10:45:52.921Z,6.07
2022-11-28T10:51:00.588Z,9.15
2022-11-28T10:56:01.975Z,8.48
2022-11-28T11:01:03.993Z,7.70
2022-11-28T11:06:05.594Z,7.05
2022-11-28T11:11:16.119Z,5.38
2022-11-28T11:16:17.639Z,8.23
2022-11-28T11:21:20.563Z,5.57
2022-11-28T11:26:29.740Z,7.63
2022-11-28T11:31:32.628Z,4.55
2022-11-28T11:36:35.685Z,6.35
2022-11-28T11:41:38.073Z,5.90
2022-11-28T11:46:51.713Z,5.00
2022-11-28T11:51:56.124Z,3.75
2022-11-28T11:57:24.999Z,4.57
2022-11-28T12:02:19.814Z,6.43
2022-11-28T12:07:28.031Z,7.25
2022-11-28T12:12:32.847Z,6.38
2022-11-28T12:17:48.796Z,6.85
2022-11-28T12:22:50.970Z,6.60
2022-11-28T12:28:10.952Z,4.45
2022-11-28T12:33:24.775Z,6.03
2022-11-28T12:38:49.299Z,4.88
2022-11-28T12:43:53.476Z,6.20
2022-11-28T12:49:33.191Z,5.70
2022-11-28T12:54:53.223Z,3.28
2022-11-28T13:00:08.130Z,5.32
2022-11-28T13:05:19.222Z,5.30
2022-11-28T13:10:43.957Z,5.22
2022-11-28T13:15:48.501Z,5.50
2022-11-28T13:20:55.839Z,7.88
2022-11-28T13:26:06.163Z,12.82
2022-11-28T13:31:14.105Z,10.50
2022-11-28T13:47:35.249Z,7.43
2022-11-28T13:52:41.763Z,8.15
2022-11-28T13:57:43.233Z,7.97
2022-11-28T14:02:46.521Z,7.60
2022-11-28T14:07:48.204Z,5.85
2022-11-28T14:12:52.825Z,7.63
2022-11-28T14:17:54.305Z,4.18
2022-11-28T14:22:58.554Z,5.22
2022-11-28T14:28:04.062Z,7.40
2022-11-28T14:33:07.830Z,4.88
2022-11-28T14:38:27.867Z,5.03
2022-11-28T14:43:30.379Z,5.57
2022-11-28T14:48:31.973Z,7.88
2022-11-28T14:53:36.458Z,4.32
2022-11-28T14:58:38.261Z,5.53
2022-11-28T15:03:39.688Z,7.72
2022-11-28T15:08:45.572Z,6.10
2022-11-28T15:13:58.903Z,10.43
2022-11-28T15:19:26.458Z,7.60
2022-11-28T15:24:30.447Z,8.00
2022-11-28T15:29:31.896Z,5.65
2022-11-28T15:34:34.805Z,4.57
2022-11-28T15:39:40.444Z,4.50
2022-11-28T15:44:42.679Z,6.72
2022-11-28T15:49:44.356Z,4.90
2022-11-28T15:54:51.482Z,6.25
2022-11-28T15:59:53.086Z,8.50
2022-11-28T16:05:00.629Z,8.48
2022-11-28T16:10:04.119Z,6.88
2022-11-28T16:15:05.821Z,7.15
2022-11-28T16:20:07.581Z,6.20
2022-11-28T16:25:13.760Z,8.10
2022-11-28T16:30:34.667Z,7.82
2022-11-28T16:35:38.995Z,6.55
2022-11-28T16:40:40.536Z,6.15
2022-11-28T16:45:42.040Z,7.35
2022-11-28T16:51:03.447Z,8.00
2022-11-28T16:56:04.907Z,6.95
2022-11-28T17:01:08.753Z,9.35
2022-11-28T17:06:15.132Z,9.18
2022-11-28T17:11:18.216Z,9.27
2022-11-28T17:16:21.723Z,13.20
2022-11-28T17:21:27.072Z,13.15
2022-11-28T17:26:28.508Z,13.20
2022-11-28T17:31:30.015Z,10.32
2022-11-28T17:36:31.523Z,10.52
2022-11-28T17:41:33.698Z,9.68
2022-11-28T17:46:35.160Z,13.10
2022-11-28T17:51:36.614Z,10.90
2022-11-28T17:56:38.113Z,8.63
2022-11-28T18:01:39.794Z,10.32
2022-11-28T18:06:45.340Z,12.02
2022-11-28T18:11:46.889Z,11.32
2022-11-28T18:16:48.489Z,9.70
2022-11-28T18:21:50.003Z,10.35
2022-11-28T18:26:51.554Z,11.63
2022-11-28T18:31:53.031Z,12.18
2022-11-28T18:37:00.269Z,11.30
2022-11-28T18:42:01.785Z,18.85
2022-11-28T18:47:03.249Z,13.60
2022-11-28T18:52:04.796Z,15.02
2022-11-28T18:57:06.793Z,14.90
2022-11-28T19:02:11.267Z,12.43
2022-11-28T19:07:12.718Z,12.43
2022-11-28T19:12:14.265Z,20.13
2022-11-28T19:17:15.747Z,15.98
2022-11-28T19:22:17.202Z,14.43
2022-11-28T19:27:18.637Z,17.25
2022-11-28T19:32:20.068Z,11.93
2022-11-28T19:37:21.499Z,11.70
2022-11-28T19:42:22.988Z,17.13
2022-11-28T19:47:24.473Z,13.85
2022-11-28T19:52:25.907Z,14.20
2022-11-28T19:57:27.432Z,11.30
2022-11-28T20:02:28.952Z,13.00
2022-11-28T20:07:30.482Z,13.82
2022-11-28T20:12:31.928Z,15.48
2022-11-28T20:17:33.369Z,15.57
2022-11-28T20:22:35.481Z,13.25
2022-11-28T20:27:36.959Z,17.55
2022-11-28T20:32:38.392Z,15.38
2022-11-28T20:37:39.905Z,12.55
2022-11-28T20:42:41.939Z,12.65
2022-11-28T20:47:49.529Z,12.43
2022-11-28T20:52:51.357Z,12.18
2022-11-28T20:57:52.817Z,11.88
2022-11-28T21:02:57.678Z,8.57
2022-11-28T21:07:59.193Z,11.32
2022-11-28T21:13:01.101Z,12.73
2022-11-28T21:18:03.770Z,11.05
2022-11-28T21:23:05.503Z,8.50
2022-11-28T21:28:07.392Z,8.52
2022-11-28T21:33:09.943Z,9.15
2022-11-28T21:38:11.414Z,6.13
2022-11-28T21:43:12.845Z,6.97
2022-11-28T21:48:14.405Z,8.63
2022-11-28T21:53:16.911Z,6.35
2022-11-28T21:58:21.213Z,6.63
2022-11-28T22:03:27.378Z,7.40
2022-11-28T22:08:29.169Z,5.47
2022-11-28T22:13:31.222Z,7.50
2022-11-28T22:18:32.679Z,5.72
2022-11-28T22:23:35.015Z,6.57
2022-11-28T22:28:37.047Z,6.30
2022-11-28T22:33:38.788Z,6.40
2022-11-28T22:38:40.923Z,7.10
2022-11-28T22:43:42.452Z,5.18
2022-11-28T22:48:43.890Z,5.72
2022-11-28T22:53:45.339Z,4.90
2022-11-28T22:58:46.873Z,5.72
2022-11-28T23:03:48.751Z,4.72
2022-11-28T23:08:50.266Z,6.13
2022-11-28T23:13:51.849Z,5.20
2022-11-28T23:18:54.330Z,5.10
2022-11-28T23:23:55.732Z,3.88
2022-11-28T23:28:58.996Z,4.15
2022-11-28T23:34:00.952Z,3.70
2022-11-28T23:39:04.693Z,3.53
2022-11-28T23:44:06.424Z,5.15
2022-11-28T23:49:08.160Z,6.53
2022-11-28T23:54:10.587Z,5.57
2022-11-28T23:59:12.471Z,5.47
